createdAt,value
2022-12-03T00:00:30.071Z,15.90
2022-12-03T00:02:56.979Z,20.40
2022-12-03T00:05:27.404Z,20.60
2022-12-03T00:07:54.162Z,17.88
2022-12-03T00:10:33.291Z,18.45
2022-12-03T00:12:59.930Z,22.52
2022-12-03T00:15:29.947Z,18.83
2022-12-03T00:17:56.913Z,18.70
2022-12-03T00:20:26.922Z,22.50
2022-12-03T00:22:58.785Z,17.15
2022-12-03T00:25:28.318Z,19.13
2022-12-03T00:27:57.199Z,19.17
2022-12-03T00:30:53.401Z,17.73
2022-12-03T00:33:22.698Z,20.55
2022-12-03T00:35:53.962Z,20.90
2022-12-03T00:38:27.612Z,21.38
2022-12-03T00:40:54.282Z,18.25
2022-12-03T00:43:22.944Z,16.58
2022-12-03T00:45:49.693Z,13.93
2022-12-03T00:48:16.333Z,16.35
2022-12-03T00:50:43.287Z,19.27
2022-12-03T00:53:16.847Z,16.42
2022-12-03T00:55:49.026Z,17.70
2022-12-03T01:03:41.835Z,17.58
2022-12-03T01:06:09.544Z,18.10
2022-12-03T01:08:41.946Z,22.98
2022-12-03T01:11:29.402Z,17.95
2022-12-03T01:14:01.818Z,18.80
2022-12-03T01:16:28.618Z,20.25
2022-12-03T01:18:55.317Z,19.17
2022-12-03T01:21:29.906Z,20.10
2022-12-03T01:23:59.196Z,19.65
2022-12-03T01:26:31.870Z,19.60
2022-12-03T01:31:44.240Z,18.40
2022-12-03T01:34:10.914Z,19.60
2022-12-03T01:36:37.544Z,19.88
2022-12-03T01:39:04.595Z,17.90
2022-12-03T01:41:34.393Z,20.20
2022-12-03T01:44:10.804Z,18.65
2022-12-03T01:46:46.645Z,18.00
2022-12-03T01:49:29.335Z,16.77
2022-12-03T01:51:59.249Z,17.27
2022-12-03T01:54:41.486Z,20.10
2022-12-03T01:57:47.638Z,19.23
2022-12-03T02:00:17.717Z,16.52
2022-12-03T02:02:47.937Z,20.33
2022-12-03T02:05:17.351Z,17.45
2022-12-03T02:07:44.568Z,24.33
2022-12-03T02:10:15.713Z,21.00
2022-12-03T02:13:11.862Z,17.63
2022-12-03T02:15:41.922Z,21.77
2022-12-03T02:18:09.463Z,19.27
2022-12-03T02:21:11.496Z,17.65
2022-12-03T02:23:50.471Z,16.67
2022-12-03T02:26:20.916Z,19.77
2022-12-03T02:28:47.980Z,17.83
2022-12-03T02:31:14.787Z,19.58
2022-12-03T02:33:43.251Z,16.58
2022-12-03T02:36:10.955Z,18.80
2022-12-03T02:38:38.190Z,17.40
2022-12-03T02:41:10.154Z,18.52
2022-12-03T02:43:38.091Z,15.70
2022-12-03T02:46:07.188Z,20.75
2022-12-03T02:48:41.123Z,16.27
2022-12-03T02:51:09.307Z,16.65
2022-12-03T02:56:41.794Z,18.98
2022-12-03T02:59:08.580Z,16.77
2022-12-03T03:01:35.363Z,14.50
2022-12-03T03:04:03.881Z,19.45
2022-12-03T03:06:32.066Z,17.63
2022-12-03T03:08:58.763Z,15.13
2022-12-03T03:11:26.010Z,15.98
2022-12-03T03:13:52.862Z,15.63
2022-12-03T03:16:19.575Z,16.30
2022-12-03T03:18:46.194Z,20.35
2022-12-03T03:21:16.706Z,14.20
2022-12-03T03:23:48.894Z,18.05
2022-12-03T03:26:16.028Z,14.15
2022-12-03T03:28:48.517Z,16.55
2022-12-03T03:31:41.315Z,17.63
2022-12-03T03:34:08.487Z,17.88
2022-12-03T03:36:35.658Z,16.20
2022-12-03T03:41:57.049Z,20.92
2022-12-03T03:44:25.260Z,19.88
2022-12-03T03:46:51.896Z,14.75
2022-12-03T03:49:21.445Z,17.33
2022-12-03T03:51:48.438Z,18.70
2022-12-03T03:54:21.040Z,21.55
2022-12-03T03:56:48.086Z,17.95
2022-12-03T03:59:22.334Z,15.00
2022-12-03T04:01:49.238Z,16.70
2022-12-03T04:04:21.592Z,15.77
2022-12-03T04:06:48.528Z,20.10
2022-12-03T04:09:15.217Z,18.77
2022-12-03T04:12:04.948Z,20.13
2022-12-03T04:14:33.878Z,19.80
2022-12-03T04:17:00.646Z,18.27
2022-12-03T04:19:29.897Z,18.85
2022-12-03T04:22:21.352Z,20.48
2022-12-03T04:24:47.937Z,16.08
2022-12-03T04:27:39.314Z,22.10
2022-12-03T04:30:06.414Z,21.52
2022-12-03T04:32:58.678Z,17.40
2022-12-03T04:35:43.746Z,21.20
2022-12-03T04:38:11.739Z,20.10
2022-12-03T04:40:57.337Z,17.70
2022-12-03T04:43:26.174Z,18.60
2022-12-03T04:45:52.926Z,21.88
2022-12-03T04:48:19.766Z,19.88
2022-12-03T04:50:49.688Z,22.67
2022-12-03T04:53:17.751Z,22.27
2022-12-03T04:55:47.780Z,18.73
2022-12-03T04:58:14.430Z,24.63
2022-12-03T05:00:44.207Z,21.55
2022-12-03T05:03:13.133Z,19.02
2022-12-03T05:05:52.198Z,20.50
2022-12-03T05:08:18.814Z,20.70
2022-12-03T05:10:47.565Z,25.25
2022-12-03T05:13:15.854Z,18.33
2022-12-03T05:15:45.559Z,17.48
2022-12-03T05:18:13.184Z,21.75
2022-12-03T05:20:44.731Z,23.15
2022-12-03T05:23:16.161Z,21.70
2022-12-03T05:25:42.918Z,24.50
2022-12-03T05:28:10.174Z,22.05
2022-12-03T05:30:41.329Z,21.63
2022-12-03T05:33:10.244Z,20.83
2022-12-03T05:35:38.930Z,22.08
2022-12-03T05:38:05.566Z,20.05
2022-12-03T05:40:38.213Z,20.98
2022-12-03T05:43:33.812Z,22.13
2022-12-03T05:46:00.939Z,23.27
2022-12-03T05:48:30.884Z,24.15
2022-12-03T05:50:58.482Z,30.58
2022-12-03T05:53:28.500Z,27.08
2022-12-03T05:55:55.263Z,23.55
2022-12-03T05:58:26.104Z,26.95
2022-12-03T06:00:56.830Z,34.67
2022-12-03T06:03:23.786Z,30.45
2022-12-03T06:05:52.113Z,24.63
2022-12-03T06:08:46.993Z,30.08
2022-12-03T06:11:19.637Z,31.42
2022-12-03T06:13:49.861Z,34.65
2022-12-03T06:16:22.830Z,26.00
2022-12-03T06:18:55.061Z,30.35
2022-12-03T06:21:22.950Z,34.50
2022-12-03T06:23:56.953Z,30.20
2022-12-03T06:26:34.650Z,32.97
2022-12-03T06:29:03.354Z,30.95
2022-12-03T06:31:30.011Z,27.90
2022-12-03T06:33:56.948Z,27.48
2022-12-03T06:36:42.527Z,31.33
2022-12-03T06:39:09.505Z,31.42
2022-12-03T06:41:36.142Z,33.80
2022-12-03T06:44:06.473Z,31.98
2022-12-03T06:46:36.346Z,34.58
2022-12-03T06:49:04.700Z,30.45
2022-12-03T06:51:31.823Z,55.63
2022-12-03T06:53:59.053Z,53.05
2022-12-03T06:56:36.839Z,45.03
2022-12-03T06:59:15.362Z,66.20
2022-12-03T07:01:47.423Z,57.15
2022-12-03T07:04:16.823Z,39.60
2022-12-03T07:10:08.459Z,35.03
2022-12-03T07:12:40.734Z,37.65
2022-12-03T07:15:16.859Z,41.17
2022-12-03T07:17:44.385Z,34.90
2022-12-03T07:20:24.776Z,38.20
2022-12-03T07:23:22.804Z,38.22
2022-12-03T07:25:56.642Z,34.97
2022-12-03T07:28:29.727Z,38.22
2022-12-03T07:30:57.998Z,34.25
2022-12-03T07:36:51.722Z,44.47
2022-12-03T07:39:25.386Z,34.63
2022-12-03T07:44:56.211Z,41.08
2022-12-03T07:47:27.857Z,42.13
2022-12-03T07:49:56.548Z,34.08
2022-12-03T07:52:23.197Z,40.35
2022-12-03T07:54:53.035Z,41.17
2022-12-03T07:57:36.094Z,38.90
2022-12-03T08:00:14.014Z,39.58
2022-12-03T08:02:43.510Z,41.22
2022-12-03T08:05:17.456Z,33.85
2022-12-03T08:07:45.191Z,45.42
2022-12-03T08:10:11.925Z,35.40
2022-12-03T08:12:41.967Z,38.35
2022-12-03T08:15:20.350Z,43.60
2022-12-03T08:18:03.854Z,41.50
2022-12-03T08:20:53.250Z,43.80
2022-12-03T08:26:46.511Z,38.15
2022-12-03T08:29:21.815Z,46.10
2022-12-03T08:31:59.055Z,41.13
2022-12-03T08:34:39.942Z,52.15
2022-12-03T08:37:36.089Z,41.83
2022-12-03T08:40:36.580Z,40.25
2022-12-03T08:43:27.105Z,48.28
2022-12-03T08:45:57.554Z,47.25
2022-12-03T08:48:49.773Z,41.75
2022-12-03T09:00:20.884Z,44.55
2022-12-03T09:09:06.774Z,43.95
2022-12-03T09:11:47.270Z,45.50
2022-12-03T09:14:50.712Z,43.53
2022-12-03T09:17:21.956Z,41.67
2022-12-03T09:20:17.401Z,49.45
2022-12-03T09:22:51.024Z,48.80
2022-12-03T09:32:04.623Z,46.00
2022-12-03T09:41:12.576Z,38.35
2022-12-03T09:47:21.308Z,42.25
2022-12-03T09:50:10.933Z,48.17
2022-12-03T09:52:38.305Z,50.80
2022-12-03T09:55:13.778Z,50.60
2022-12-03T10:09:48.971Z,46.25
2022-12-03T10:15:23.694Z,43.58
2022-12-03T10:17:56.029Z,43.03
2022-12-03T10:23:31.689Z,36.10
2022-12-03T10:26:04.992Z,43.53
2022-12-03T10:28:42.484Z,43.53
2022-12-03T10:31:38.718Z,44.22
2022-12-03T10:34:30.099Z,44.50
2022-12-03T10:37:25.401Z,41.85
2022-12-03T10:40:20.293Z,38.08
2022-12-03T10:52:50.353Z,42.70
2022-12-03T10:55:17.785Z,48.42
2022-12-03T10:57:47.497Z,43.38
2022-12-03T11:00:18.332Z,47.00
2022-12-03T11:02:48.308Z,44.25
2022-12-03T11:05:26.688Z,47.90
2022-12-03T11:07:57.181Z,44.63
2022-12-03T11:10:24.699Z,55.25
2022-12-03T11:13:26.135Z,49.00
2022-12-03T11:15:53.791Z,39.95
2022-12-03T11:18:39.202Z,57.88
2022-12-03T11:21:13.589Z,45.83
2022-12-03T11:23:46.452Z,40.22
2022-12-03T11:26:38.666Z,36.13
2022-12-03T11:29:13.666Z,40.05
2022-12-03T11:31:45.923Z,39.55
2022-12-03T11:34:19.700Z,39.75
2022-12-03T11:37:13.995Z,40.03
2022-12-03T11:39:50.133Z,38.05
2022-12-03T11:42:24.636Z,36.80
2022-12-03T11:45:31.375Z,37.15
2022-12-03T11:48:12.007Z,39.30
2022-12-03T11:50:52.882Z,38.53
2022-12-03T11:53:29.257Z,39.40
2022-12-03T11:56:08.117Z,39.65
2022-12-03T11:58:38.749Z,35.15
2022-12-03T12:01:08.409Z,37.15
2022-12-03T12:03:35.458Z,41.50
2022-12-03T12:06:12.596Z,39.72
2022-12-03T12:09:04.468Z,35.30
2022-12-03T12:11:36.649Z,36.88
2022-12-03T12:14:04.296Z,37.75
2022-12-03T12:16:52.411Z,75.13
2022-12-03T12:19:32.033Z,42.90
2022-12-03T12:22:30.117Z,75.22
2022-12-03T12:25:21.947Z,40.65
2022-12-03T12:27:53.058Z,36.38
2022-12-03T12:30:21.460Z,33.78
2022-12-03T12:33:13.188Z,38.15
2022-12-03T12:35:44.816Z,59.10
2022-12-03T12:38:15.971Z,42.90
2022-12-03T12:40:55.178Z,61.80
2022-12-03T12:43:31.869Z,36.30
2022-12-03T12:46:46.089Z,35.03
2022-12-03T12:49:02.228Z,43.50
2022-12-03T12:51:28.989Z,51.90
2022-12-03T12:54:02.546Z,40.90
2022-12-03T12:56:31.222Z,35.08
2022-12-03T12:59:14.678Z,27.45
2022-12-03T13:01:43.853Z,23.88
2022-12-03T13:04:14.699Z,26.35
2022-12-03T13:06:41.917Z,23.23
2022-12-03T13:09:30.870Z,26.65
2022-12-03T13:12:03.359Z,27.58
2022-12-03T13:14:37.644Z,33.13
2022-12-03T13:17:25.998Z,30.85
2022-12-03T13:20:23.035Z,43.17
2022-12-03T13:22:50.988Z,42.22
2022-12-03T13:26:22.308Z,30.95
2022-12-03T13:28:42.667Z,55.40
2022-12-03T13:40:36.862Z,45.05
2022-12-03T13:43:18.278Z,36.28
2022-12-03T13:45:49.754Z,97.03
2022-12-03T13:48:29.386Z,37.03
2022-12-03T13:50:57.301Z,90.88
2022-12-03T13:53:32.790Z,41.25
2022-12-03T13:56:27.209Z,34.78
2022-12-03T13:58:54.677Z,61.25
2022-12-03T14:01:21.400Z,34.45
2022-12-03T14:04:11.962Z,48.80
2022-12-03T14:06:40.861Z,28.33
2022-12-03T14:09:10.415Z,41.58
2022-12-03T14:11:59.185Z,68.30
2022-12-03T14:14:25.881Z,55.67
2022-12-03T14:16:59.491Z,40.03
2022-12-03T14:21:56.096Z,26.77
2022-12-03T14:24:22.750Z,26.85
2022-12-03T14:26:52.416Z,32.22
2022-12-03T14:29:19.046Z,29.25
2022-12-03T14:31:45.783Z,28.13
2022-12-03T14:34:15.178Z,26.13
2022-12-03T14:36:41.937Z,26.92
2022-12-03T14:39:08.545Z,28.95
2022-12-03T14:41:56.324Z,26.52
2022-12-03T14:44:24.779Z,28.67
2022-12-03T14:46:56.599Z,26.65
2022-12-03T14:49:24.223Z,26.35
2022-12-03T14:51:50.950Z,28.58
2022-12-03T14:54:17.813Z,32.47
2022-12-03T14:56:44.487Z,31.13
2022-12-03T14:59:20.695Z,29.92
2022-12-03T15:01:51.819Z,27.30
2022-12-03T15:04:18.813Z,28.70
2022-12-03T15:06:45.684Z,25.33
2022-12-03T15:09:13.117Z,27.08
2022-12-03T15:11:45.961Z,29.67
2022-12-03T15:14:17.316Z,26.08
2022-12-03T15:16:44.065Z,25.95
2022-12-03T15:19:15.184Z,28.48
2022-12-03T15:22:09.425Z,29.60
2022-12-03T15:24:36.103Z,55.20
2022-12-03T15:27:02.808Z,57.85
2022-12-03T15:29:29.736Z,40.35
2022-12-03T15:31:59.218Z,41.70
2022-12-03T15:34:29.273Z,37.08
2022-12-03T15:36:58.167Z,55.78
2022-12-03T15:39:25.089Z,37.00
2022-12-03T15:41:51.672Z,35.92
2022-12-03T15:44:18.360Z,42.10
2022-12-03T15:46:46.911Z,39.03
2022-12-03T15:49:30.971Z,33.65
2022-12-03T15:51:58.192Z,35.17
2022-12-03T15:54:49.914Z,45.28
2022-12-03T15:57:25.251Z,32.58
2022-12-03T15:59:52.383Z,34.15
2022-12-03T16:02:21.675Z,38.28
2022-12-03T16:04:48.557Z,54.15
2022-12-03T16:07:25.309Z,41.92
2022-12-03T16:09:53.781Z,34.15
2022-12-03T16:12:24.386Z,63.30
2022-12-03T16:14:53.760Z,82.78
2022-12-03T16:17:20.576Z,135.38
2022-12-03T16:19:48.764Z,57.05
2022-12-03T16:22:21.437Z,71.75
2022-12-03T16:27:45.714Z,53.88
2022-12-03T16:30:15.486Z,58.33
2022-12-03T16:32:42.303Z,47.40
2022-12-03T16:35:09.114Z,40.17
2022-12-03T16:38:00.607Z,38.88
2022-12-03T16:40:33.227Z,32.95
2022-12-03T16:43:03.924Z,41.13
2022-12-03T16:45:53.295Z,31.02
2022-12-03T16:48:20.087Z,32.00
2022-12-03T16:50:46.804Z,31.15
2022-12-03T16:53:16.632Z,34.60
2022-12-03T16:55:43.308Z,36.33
2022-12-03T16:58:20.651Z,33.00
2022-12-03T17:00:53.462Z,32.13
2022-12-03T17:05:57.220Z,32.97
2022-12-03T17:08:26.082Z,34.13
2022-12-03T17:10:55.872Z,39.05
2022-12-03T17:13:22.744Z,97.70
2022-12-03T17:15:50.322Z,54.53
2022-12-03T17:18:17.177Z,32.70
2022-12-03T17:20:46.715Z,41.85
2022-12-03T17:23:14.307Z,38.33
2022-12-03T17:25:44.357Z,31.50
2022-12-03T17:28:36.376Z,42.55
2022-12-03T17:31:12.344Z,37.20
2022-12-03T17:33:42.154Z,37.00
2022-12-03T17:36:13.619Z,39.78
2022-12-03T17:38:40.281Z,36.03
2022-12-03T17:41:10.230Z,34.75
2022-12-03T17:43:37.129Z,32.03
2022-12-03T17:46:05.928Z,39.38
2022-12-03T17:48:34.029Z,31.70
2022-12-03T17:51:01.001Z,32.97
2022-12-03T17:53:28.683Z,38.05
2022-12-03T17:55:58.488Z,38.50
2022-12-03T17:58:33.398Z,30.02
2022-12-03T18:01:08.079Z,39.05
2022-12-03T18:03:34.797Z,34.28
2022-12-03T18:06:09.169Z,31.65
2022-12-03T18:08:37.041Z,37.35
2022-12-03T18:11:03.834Z,25.02
2022-12-03T18:13:30.573Z,34.10
2022-12-03T18:15:58.439Z,30.10
2022-12-03T18:18:25.325Z,33.80
2022-12-03T18:20:53.445Z,33.53
2022-12-03T18:23:22.090Z,36.42
2022-12-03T18:25:51.040Z,32.78
2022-12-03T18:28:18.811Z,28.73
2022-12-03T18:30:52.654Z,35.38
2022-12-03T18:33:44.416Z,32.08
2022-12-03T18:36:29.201Z,30.88
2022-12-03T18:38:59.851Z,33.58
2022-12-03T18:41:53.496Z,32.53
2022-12-03T18:44:22.526Z,29.15
2022-12-03T18:46:54.169Z,29.30
2022-12-03T18:49:25.405Z,29.63
2022-12-03T18:51:57.489Z,33.03
2022-12-03T18:54:26.452Z,30.42
2022-12-03T18:56:58.465Z,34.13
2022-12-03T18:59:25.766Z,35.97
2022-12-03T19:01:52.491Z,33.33
2022-12-03T19:04:20.415Z,30.42
2022-12-03T19:06:53.551Z,32.60
2022-12-03T19:09:20.275Z,31.48
2022-12-03T19:11:49.170Z,26.55
2022-12-03T19:14:15.834Z,27.60
2022-12-03T19:16:44.427Z,31.20
2022-12-03T19:19:14.547Z,26.27
2022-12-03T19:22:06.820Z,31.67
2022-12-03T19:24:37.711Z,27.13
2022-12-03T19:27:04.382Z,30.30
2022-12-03T19:29:35.557Z,39.97
2022-12-03T19:32:03.494Z,29.55
2022-12-03T19:34:31.474Z,33.35
2022-12-03T19:36:58.278Z,27.13
2022-12-03T19:39:27.042Z,33.03
2022-12-03T19:41:53.694Z,33.30
2022-12-03T19:44:24.760Z,31.08
2022-12-03T19:46:52.148Z,29.90
2022-12-03T19:49:20.578Z,35.63
2022-12-03T19:51:51.415Z,31.75
2022-12-03T19:54:18.691Z,59.28
2022-12-03T19:56:45.692Z,51.60
2022-12-03T20:02:06.355Z,32.03
2022-12-03T20:04:34.441Z,36.90
2022-12-03T20:09:53.684Z,34.72
2022-12-03T20:12:22.475Z,32.42
2022-12-03T20:14:49.460Z,34.88
2022-12-03T20:17:18.656Z,34.35
2022-12-03T20:19:50.700Z,35.35
2022-12-03T20:22:18.044Z,32.42
2022-12-03T20:24:46.873Z,31.52
2022-12-03T20:27:22.796Z,33.90
2022-12-03T20:29:55.589Z,31.38
2022-12-03T20:32:22.437Z,28.20
2022-12-03T20:34:51.150Z,32.17
2022-12-03T20:37:21.657Z,32.00
2022-12-03T20:39:53.541Z,33.53
2022-12-03T20:42:20.445Z,33.42
2022-12-03T20:44:53.409Z,30.75
2022-12-03T20:47:25.980Z,30.63
2022-12-03T20:49:52.755Z,30.77
2022-12-03T20:52:21.663Z,32.88
2022-12-03T20:54:48.348Z,29.67
2022-12-03T20:57:19.131Z,28.17
2022-12-03T20:59:49.251Z,38.15
2022-12-03T21:02:16.091Z,32.80
2022-12-03T21:04:42.964Z,31.05
2022-12-03T21:07:11.847Z,31.27
2022-12-03T21:09:40.290Z,36.28
2022-12-03T21:12:07.002Z,34.83
2022-12-03T21:14:37.166Z,38.13
2022-12-03T21:17:09.607Z,34.53
2022-12-03T21:22:13.174Z,30.77
2022-12-03T21:24:44.255Z,32.50
2022-12-03T21:27:11.268Z,30.10
2022-12-03T21:29:43.440Z,33.50
2022-12-03T21:32:11.649Z,34.72
2022-12-03T21:34:42.273Z,37.22
2022-12-03T21:37:09.199Z,33.90
2022-12-03T21:40:02.933Z,29.08
2022-12-03T21:42:35.375Z,32.33
2022-12-03T21:45:07.658Z,30.20
2022-12-03T21:47:37.890Z,34.45
2022-12-03T21:50:10.394Z,34.00
2022-12-03T21:52:40.481Z,27.92
2022-12-03T21:55:07.608Z,44.72
2022-12-03T21:57:35.194Z,95.07
2022-12-03T22:00:08.626Z,56.25
2022-12-03T22:02:41.413Z,47.95
2022-12-03T22:05:09.911Z,55.03
2022-12-03T22:07:41.923Z,38.75
2022-12-03T22:10:10.597Z,47.45
2022-12-03T22:12:41.264Z,33.00
2022-12-03T22:17:46.158Z,32.65
2022-12-03T22:20:16.770Z,27.77
2022-12-03T22:22:45.321Z,29.90
2022-12-03T22:25:14.603Z,31.95
2022-12-03T22:27:43.693Z,28.23
2022-12-03T22:30:15.677Z,30.58
2022-12-03T22:32:42.342Z,28.73
2022-12-03T22:35:11.712Z,30.48
2022-12-03T22:37:38.385Z,30.48
2022-12-03T22:40:05.680Z,30.08
2022-12-03T22:42:32.504Z,31.45
2022-12-03T22:45:01.275Z,27.58
2022-12-03T22:47:30.305Z,27.27
2022-12-03T22:49:57.315Z,34.15
2022-12-03T22:52:24.105Z,28.63
2022-12-03T22:54:55.134Z,30.63
2022-12-03T22:57:21.858Z,32.75
2022-12-03T22:59:48.736Z,31.38
2022-12-03T23:02:18.114Z,32.08
2022-12-03T23:04:44.856Z,33.88
2022-12-03T23:07:11.685Z,26.75
2022-12-03T23:09:38.506Z,23.13
2022-12-03T23:12:06.675Z,31.45
2022-12-03T23:14:33.266Z,30.40
2022-12-03T23:17:02.208Z,26.75
2022-12-03T23:19:29.034Z,30.52
2022-12-03T23:21:57.858Z,28.08
2022-12-03T23:24:24.464Z,33.13
2022-12-03T23:26:51.494Z,30.45
2022-12-03T23:29:18.141Z,34.55
2022-12-03T23:31:48.434Z,28.50
2022-12-03T23:34:15.209Z,29.05
2022-12-03T23:36:42.101Z,30.58
2022-12-03T23:39:34.242Z,39.28
2022-12-03T23:42:04.463Z,35.67
2022-12-03T23:44:35.302Z,26.52
2022-12-03T23:47:02.088Z,30.52
2022-12-03T23:49:28.912Z,33.85
2022-12-03T23:51:55.639Z,29.17
2022-12-03T23:54:22.547Z,28.23
2022-12-03T23:56:54.254Z,32.17
2022-12-03T23:59:20.889Z,28.25
